Time;durP1;ratioP1;P1;durP2;ratioP2;P2;SDS_P1;SDS_P2;PMS_P1;PMS_P2;Temp;Humidity;BMP_temperature;BMP_pressure;BME280_temperature;BME280_humidity;BME280_pressure;Samples;Min_cycle;Max_cycle;Signal;HPM_P1;HPM_P2
2022/03/16 00:00:39;;;;;;;1022.45;49.97;;;;;;;3.93;68.75;100791.34;10308350;28;20133;-75
2022/03/16 00:05:41;;;;;;;729.55;35.08;;;;;;;3.97;68.92;100791.28;10307119;28;20062;-75
2022/03/16 00:10:43;;;;;;;579.92;23.25;;;;;;;4.08;68.51;100786.75;10291335;28;20133;-75
2022/03/16 00:15:45;;;;;;;511.50;26.95;;;;;;;3.82;68.65;100783.78;10305033;28;20061;-75
2022/03/16 00:20:48;;;;;;;704.63;37.95;;;;;;;3.84;69.02;100785.47;10304033;28;20070;-75
2022/03/16 00:25:49;;;;;;;832.35;46.65;;;;;;;3.89;69.08;100787.97;10304719;28;20050;-75
2022/03/16 00:30:51;;;;;;;811.33;49.40;;;;;;;3.99;68.69;100794.69;10306166;28;20153;-75
2022/03/16 00:35:53;;;;;;;508.02;33.30;;;;;;;4.00;68.83;100799.00;10305039;28;20052;-75
2022/03/16 00:40:55;;;;;;;666.20;38.50;;;;;;;4.07;68.65;100792.78;10309396;28;20149;-75
2022/03/16 00:45:57;;;;;;;792.90;49.67;;;;;;;4.22;68.34;100792.50;10301231;28;20046;-75
2022/03/16 00:50:59;;;;;;;812.25;51.38;;;;;;;4.23;68.02;100785.59;10304513;28;20511;-75
2022/03/16 00:56:04;;;;;;;714.72;44.42;;;;;;;4.20;68.43;100789.09;10306619;28;20065;-75
2022/03/16 01:01:07;;;;;;;935.00;51.90;;;;;;;4.25;68.10;100784.66;10309702;28;20141;-74
2022/03/16 01:06:15;;;;;;;552.95;29.65;;;;;;;4.04;68.27;100785.09;10305955;28;20049;-75
2022/03/16 01:11:17;;;;;;;1089.47;55.30;;;;;;;3.99;68.50;100786.91;10286587;28;20164;-75
2022/03/16 01:16:19;;;;;;;738.60;37.65;;;;;;;3.79;68.94;100781.22;10306356;28;20142;-75
2022/03/16 01:21:21;;;;;;;660.95;33.72;;;;;;;3.61;69.17;100782.44;10285938;28;20077;-75
2022/03/16 01:26:22;;;;;;;675.40;39.13;;;;;;;3.68;69.33;100771.06;10303936;28;20186;-75
2022/03/16 01:31:24;;;;;;;732.83;39.13;;;;;;;3.81;68.99;100774.28;10305469;28;20129;-75
2022/03/16 01:36:26;;;;;;;835.53;47.45;;;;;;;3.95;69.03;100769.75;10287475;28;20050;-75
2022/03/16 01:41:28;;;;;;;431.02;30.52;;;;;;;4.06;68.50;100770.41;10303069;28;20089;-75
2022/03/16 01:46:30;;;;;;;524.80;36.92;;;;;;;3.97;68.55;100775.75;10303385;28;20471;-75
2022/03/16 01:51:32;;;;;;;466.27;35.10;;;;;;;3.95;68.49;100776.66;10303684;28;20097;-75
2022/03/16 01:56:34;;;;;;;538.50;35.55;;;;;;;3.85;68.51;100787.19;10300629;28;20053;-75
2022/03/16 02:01:36;;;;;;;682.42;47.60;;;;;;;3.45;68.94;100780.16;10303778;28;20161;-75
2022/03/16 02:06:38;;;;;;;723.33;51.65;;;;;;;3.49;69.56;100782.66;10303373;28;20165;-75
2022/03/16 02:11:40;;;;;;;374.15;33.50;;;;;;;3.65;69.31;100783.22;10283521;28;20137;-75
2022/03/16 02:16:42;;;;;;;451.45;37.90;;;;;;;3.81;69.18;100782.91;10303339;28;20050;-75
2022/03/16 02:22:40;;;;;;;463.05;44.38;;;;;;;3.77;69.40;100783.00;10300216;28;20052;-75
2022/03/16 02:27:42;;;;;;;205.90;27.67;;;;;;;3.79;69.06;100778.66;10297730;28;20064;-75
2022/03/16 02:32:43;;;;;;;520.65;47.17;;;;;;;3.87;69.12;100789.75;10283803;28;20069;-75
2022/03/16 02:37:45;;;;;;;666.95;54.13;;;;;;;3.98;68.92;100776.59;10303942;28;20050;-75
2022/03/16 02:42:48;;;;;;;476.92;44.28;;;;;;;3.84;68.95;100784.63;10286054;28;20145;-75
2022/03/16 02:47:49;;;;;;;330.02;32.10;;;;;;;3.93;69.16;100788.75;10304164;28;20137;-75
2022/03/16 02:52:51;;;;;;;386.85;35.35;;;;;;;3.99;69.01;100797.28;10287864;28;20338;-75
2022/03/16 02:58:14;;;;;;;247.43;31.70;;;;;;;3.94;68.51;100786.16;10303085;28;20058;-75
2022/03/16 03:03:17;;;;;;;222.75;30.52;;;;;;;3.85;68.60;100791.50;10307462;28;20161;-75
2022/03/16 03:08:19;;;;;;;599.03;52.20;;;;;;;3.79;68.79;100792.44;10315165;28;20137;-75
2022/03/16 03:13:20;;;;;;;750.53;61.22;;;;;;;3.85;68.64;100794.09;10305897;28;20145;-74
2022/03/16 03:18:22;;;;;;;596.90;60.17;;;;;;;3.88;68.58;100799.22;10309232;28;20053;-75
2022/03/16 03:23:24;;;;;;;287.58;37.13;;;;;;;3.85;68.85;100807.88;10307559;28;20050;-75
2022/03/16 03:28:25;;;;;;;307.50;34.50;;;;;;;3.96;68.65;100819.78;10290487;28;20146;-75
2022/03/16 03:33:27;;;;;;;608.97;56.75;;;;;;;3.84;68.28;100818.28;10308423;28;20159;-75
2022/03/16 03:38:29;;;;;;;331.58;40.53;;;;;;;3.86;68.72;100819.09;10309885;28;20152;-75
2022/03/16 03:43:31;;;;;;;210.32;28.00;;;;;;;3.82;68.57;100812.25;10315229;28;20136;-75
2022/03/16 03:48:32;;;;;;;376.48;42.25;;;;;;;3.94;68.47;100822.41;10300068;28;20137;-75
2022/03/16 03:53:34;;;;;;;250.48;34.55;;;;;;;3.92;68.30;100813.81;10308210;28;20054;-75
2022/03/16 03:58:38;;;;;;;312.83;31.80;;;;;;;3.93;68.11;100815.50;10315085;28;20089;-75
2022/03/16 04:03:40;;;;;;;850.95;53.40;;;;;;;3.60;68.74;100816.09;10314861;28;20058;-75
2022/03/16 04:08:43;;;;;;;416.90;39.80;;;;;;;3.65;69.06;100830.66;10293773;28;20051;-75
2022/03/16 04:13:44;;;;;;;273.67;31.98;;;;;;;3.77;68.64;100832.16;10305830;28;20137;-75
2022/03/16 04:18:46;;;;;;;576.45;45.67;;;;;;;3.87;68.58;100833.72;10309370;28;20137;-75
2022/03/16 04:23:49;;;;;;;486.88;30.08;;;;;;;3.66;68.36;100841.84;10308936;28;20140;-75
2022/03/16 04:28:50;;;;;;;781.45;34.88;;;;;;;3.60;68.25;100840.19;10306261;28;20050;-75
2022/03/16 04:33:52;;;;;;;490.55;28.55;;;;;;;3.27;68.69;100839.91;10305926;28;20156;-75
2022/03/16 04:38:55;;;;;;;516.92;37.40;;;;;;;2.90;69.12;100842.19;10308292;28;20049;-75
2022/03/16 04:43:57;;;;;;;374.48;33.80;;;;;;;2.96;69.46;100842.09;10306592;28;20165;-75
2022/03/16 04:48:59;;;;;;;410.63;31.02;;;;;;;2.97;69.49;100843.78;10305262;28;20058;-75
2022/03/16 04:54:00;;;;;;;272.75;29.00;;;;;;;2.75;69.56;100853.59;10304338;28;20060;-75
2022/03/16 04:59:03;;;;;;;681.60;34.75;;;;;;;2.71;69.39;100848.47;10305779;28;20062;-75
2022/03/16 05:04:05;;;;;;;477.30;33.15;;;;;;;2.75;69.47;100850.13;10305528;28;20145;-75
2022/03/16 05:09:07;;;;;;;363.80;27.63;;;;;;;2.90;69.70;100855.09;10308675;28;20049;-75
2022/03/16 05:14:09;;;;;;;233.85;21.27;;;;;;;2.99;69.18;100853.25;10307382;28;20124;-75
2022/03/16 05:19:11;;;;;;;219.38;22.17;;;;;;;3.05;69.08;100847.97;10305449;28;20580;-75
2022/03/16 05:24:13;;;;;;;206.82;20.05;;;;;;;2.93;68.99;100850.75;10305630;28;20523;-75
2022/03/16 05:29:15;;;;;;;256.15;21.02;;;;;;;3.01;69.04;100855.78;10305578;28;20081;-75
2022/03/16 05:34:16;;;;;;;286.52;20.77;;;;;;;3.05;69.17;100858.31;10289630;28;20165;-75
2022/03/16 05:39:18;;;;;;;230.30;17.70;;;;;;;3.03;68.81;100861.78;10304613;28;20129;-75
2022/03/16 05:44:20;;;;;;;316.20;21.33;;;;;;;3.02;68.76;100865.28;10303876;28;20050;-75
2022/03/16 05:49:25;;;;;;;217.02;20.80;;;;;;;3.05;68.38;100870.38;10305887;28;20128;-75
2022/03/16 05:54:30;;;;;;;184.60;22.88;;;;;;;3.04;68.25;100884.19;10289487;28;20443;-75
2022/03/16 05:59:33;;;;;;;293.80;22.23;;;;;;;3.02;68.15;100888.53;10307379;28;20141;-75
2022/03/16 06:04:35;;;;;;;403.63;23.92;;;;;;;2.76;68.86;100891.47;10303684;28;20054;-76
2022/03/16 06:09:38;;;;;;;506.77;26.88;;;;;;;2.59;68.87;100887.38;10289442;28;20086;-75
2022/03/16 06:14:42;;;;;;;441.92;25.77;;;;;;;2.57;68.94;100883.94;10305703;28;20050;-75
2022/03/16 06:19:44;;;;;;;385.10;24.98;;;;;;;2.71;68.94;100901.00;10304085;28;20132;-75
2022/03/16 06:24:45;;;;;;;285.00;22.95;;;;;;;2.90;68.82;100897.31;10306079;28;20141;-76
2022/03/16 06:29:47;;;;;;;287.65;21.90;;;;;;;3.06;68.46;100900.53;10305130;28;20158;-76
2022/03/16 06:34:49;;;;;;;394.90;24.52;;;;;;;3.03;68.38;100901.41;10302485;28;20141;-76
2022/03/16 06:39:51;;;;;;;270.60;20.60;;;;;;;3.07;68.22;100910.84;10288486;28;20116;-76
2022/03/16 06:44:52;;;;;;;353.45;23.00;;;;;;;2.82;68.23;100912.06;10285867;28;20143;-76
2022/03/16 06:49:54;;;;;;;332.27;23.90;;;;;;;2.93;68.57;100906.72;10300426;28;20149;-76
2022/03/16 06:54:56;;;;;;;352.63;24.42;;;;;;;2.99;68.24;100904.91;10301194;28;20050;-76
2022/03/16 06:59:57;;;;;;;270.35;21.63;;;;;;;3.07;68.54;100897.91;10299282;28;20431;-76
2022/03/16 07:04:59;;;;;;;455.20;29.27;;;;;;;3.26;68.18;100897.66;10300777;28;20129;-76
2022/03/16 07:10:01;;;;;;;336.45;25.95;;;;;;;3.18;68.19;100899.50;10285312;28;20508;-76
2022/03/16 07:15:03;;;;;;;391.60;27.65;;;;;;;3.36;68.12;100899.22;10305522;28;20105;-76
2022/03/16 07:20:06;;;;;;;511.33;36.17;;;;;;;3.37;68.23;100900.94;10293725;28;20137;-76
2022/03/16 07:25:09;;;;;;;707.13;41.28;;;;;;;3.18;68.26;100891.72;10310333;28;20061;-76
2022/03/16 07:30:11;;;;;;;618.65;31.30;;;;;;;3.26;68.57;100889.88;10312092;28;20149;-76
2022/03/16 07:35:13;;;;;;;612.08;39.67;;;;;;;3.34;68.81;100893.22;10309643;28;20054;-76
2022/03/16 07:40:15;;;;;;;307.95;30.70;;;;;;;3.64;68.36;100891.00;10310378;28;20097;-76
2022/03/16 07:45:18;;;;;;;226.38;23.60;;;;;;;3.58;67.95;100904.03;10309704;28;20050;-76
2022/03/16 07:50:20;;;;;;;161.30;23.02;;;;;;;3.61;67.95;100900.56;10304227;28;20583;-76
2022/03/16 07:55:22;;;;;;;83.18;22.90;;;;;;;3.73;68.26;100888.28;10285615;28;20052;-76
2022/03/16 08:00:24;;;;;;;149.98;25.33;;;;;;;3.82;68.15;100895.03;10293843;28;20419;-76
2022/03/16 08:05:30;;;;;;;69.57;23.95;;;;;;;4.04;67.70;100904.16;10292561;28;20057;-76
2022/03/16 08:10:32;;;;;;;35.22;19.73;;;;;;;4.22;67.27;100906.41;10309144;28;20136;-76
2022/03/16 08:15:34;;;;;;;48.50;22.27;;;;;;;4.18;66.83;100920.31;10308609;28;20052;-76
2022/03/16 08:20:36;;;;;;;33.50;21.08;;;;;;;4.44;66.87;100920.66;10305714;28;20149;-76
2022/03/16 08:25:38;;;;;;;30.70;19.95;;;;;;;4.83;66.33;100920.75;10293628;28;20042;-76
2022/03/16 08:31:08;;;;;;;36.70;20.40;;;;;;;5.01;64.82;100922.97;10283506;28;20081;-76
2022/03/16 08:36:11;;;;;;;32.20;20.60;;;;;;;4.93;65.32;100911.91;10305205;28;20065;-75
2022/03/16 08:41:13;;;;;;;27.77;19.95;;;;;;;4.78;65.53;100909.66;10284539;28;20090;-75
2022/03/16 08:46:14;;;;;;;29.60;19.77;;;;;;;4.64;65.73;100910.78;10305526;28;20054;-75
2022/03/16 08:51:16;;;;;;;37.00;23.60;;;;;;;4.89;66.05;100915.44;10303605;28;20133;-75
2022/03/16 08:56:18;;;;;;;32.47;22.02;;;;;;;5.38;65.00;100916.09;10305342;28;20149;-75
2022/03/16 09:01:20;;;;;;;31.92;22.60;;;;;;;5.42;64.59;100912.53;10305218;28;21107;-74
2022/03/16 09:06:22;;;;;;;34.72;23.35;;;;;;;5.79;64.45;100896.94;10298064;28;20050;-75
2022/03/16 09:11:24;;;;;;;32.53;22.30;;;;;;;5.95;63.99;100890.47;10286880;28;20148;-75
2022/03/16 09:16:27;;;;;;;33.40;22.98;;;;;;;6.08;64.20;100887.50;10282433;28;20161;-74
2022/03/16 09:21:30;;;;;;;28.17;21.13;;;;;;;6.28;63.89;100887.88;10304887;28;20056;-75
2022/03/16 09:26:32;;;;;;;29.15;21.35;;;;;;;6.10;63.73;100883.09;10305051;28;20154;-74
2022/03/16 09:31:38;;;;;;;23.13;19.02;;;;;;;6.24;63.67;100870.63;10304438;28;20124;-74
2022/03/16 09:36:42;;;;;;;28.73;18.73;;;;;;;6.49;63.58;100864.78;10285993;28;20150;-74
2022/03/16 09:41:44;;;;;;;23.42;18.80;;;;;;;6.72;63.33;100864.97;10304642;28;20630;-77
2022/03/16 09:46:50;;;;;;;24.63;18.08;;;;;;;7.02;63.04;100857.09;10305713;28;20042;-77
2022/03/16 09:51:53;;;;;;;19.80;17.10;;;;;;;7.50;61.86;100851.25;10304156;28;20061;-78
2022/03/16 09:56:56;;;;;;;22.10;17.27;;;;;;;7.84;61.53;100841.41;10287401;28;20153;-78
2022/03/16 10:02:07;;;;;;;20.40;17.23;;;;;;;7.42;62.37;100824.63;10285829;28;20116;-77
2022/03/16 10:07:09;;;;;;;19.88;16.30;;;;;;;7.62;62.39;100846.50;10305484;28;20072;-78
2022/03/16 10:17:56;;;;;;;18.58;16.33;;;;;;;8.12;62.53;100818.75;10304167;28;20050;-78
2022/03/16 10:23:18;;;;;;;17.90;15.55;;;;;;;8.56;61.51;100827.56;10304859;28;20468;-78
2022/03/16 10:28:22;;;;;;;15.65;13.95;;;;;;;8.99;61.38;100814.59;10305797;28;20090;-78
2022/03/16 10:33:33;;;;;;;18.02;15.45;;;;;;;9.34;61.45;100814.00;10289420;28;20133;-78
2022/03/16 10:38:40;;;;;;;20.33;15.95;;;;;;;9.75;61.38;100816.72;10301163;28;20050;-77
2022/03/16 10:49:06;;;;;;;15.40;13.07;;;;;;;10.29;59.57;100804.72;10301457;28;20129;-77
2022/03/16 10:54:07;;;;;;;14.40;12.68;;;;;;;10.40;58.89;100789.38;10309724;28;20058;-77
2022/03/16 10:59:10;;;;;;;15.50;13.45;;;;;;;10.72;59.43;100801.00;10309505;28;20057;-77
2022/03/16 11:04:12;;;;;;;14.23;11.80;;;;;;;10.81;55.90;100784.00;10289602;28;20567;-77
2022/03/16 11:09:15;;;;;;;14.68;11.55;;;;;;;10.86;55.14;100788.09;10310847;28;20090;-76
2022/03/16 11:14:20;;;;;;;14.95;12.05;;;;;;;10.95;54.99;100778.97;10308893;28;20488;-76
2022/03/16 11:19:23;;;;;;;14.52;11.30;;;;;;;10.86;55.18;100769.78;10302269;28;20617;-77
2022/03/16 11:24:32;;;;;;;13.77;12.27;;;;;;;10.83;54.95;100763.84;10309235;28;20140;-76
2022/03/16 11:29:58;;;;;;;13.27;11.40;;;;;;;10.91;53.51;100773.03;10309228;28;20055;-76
2022/03/16 11:35:00;;;;;;;13.57;11.40;;;;;;;11.12;53.40;100774.66;10309329;28;20050;-76
2022/03/16 11:40:11;;;;;;;12.50;10.40;;;;;;;11.37;51.86;100760.34;10309152;28;20054;-76
2022/03/16 11:45:41;;;;;;;12.52;10.63;;;;;;;11.54;51.93;100757.75;10309528;28;20081;-76
2022/03/16 11:51:09;;;;;;;12.68;11.02;;;;;;;11.61;49.36;100738.16;10310430;28;20140;-77
2022/03/16 11:56:24;;;;;;;12.32;11.02;;;;;;;11.36;50.64;100722.00;10308762;28;20097;-76
2022/03/16 12:01:31;;;;;;;11.98;10.20;;;;;;;11.23;49.68;100717.34;10303125;28;20504;-76
2022/03/16 12:07:05;;;;;;;11.30;10.10;;;;;;;11.53;50.37;100694.00;10288753;28;20519;-76
2022/03/16 12:17:52;;;;;;;12.45;10.25;;;;;;;12.46;48.85;100689.88;10307949;28;20483;-76
2022/03/16 12:22:59;;;;;;;11.13;9.93;;;;;;;12.75;47.59;100691.72;10291764;28;20097;-76
2022/03/16 12:33:37;;;;;;;11.05;9.25;;;;;;;13.16;47.34;100673.59;10304921;28;20081;-76
2022/03/16 12:38:47;;;;;;;11.35;9.73;;;;;;;13.32;46.50;100658.63;10306328;28;20130;-76
2022/03/16 12:43:49;;;;;;;10.20;9.05;;;;;;;13.04;47.44;100659.41;10311585;28;20077;-76
2022/03/16 12:49:01;;;;;;;10.75;9.63;;;;;;;12.86;47.51;100658.66;10307652;28;20050;-77
2022/03/16 12:54:07;;;;;;;11.80;10.23;;;;;;;12.78;47.33;100662.69;10307149;28;20146;-77
2022/03/16 12:59:11;;;;;;;13.13;9.95;;;;;;;12.74;47.66;100656.75;10307256;28;20061;-77
2022/03/16 13:04:16;;;;;;;10.85;9.30;;;;;;;13.02;47.90;100652.53;10307960;28;20081;-77
2022/03/16 13:09:18;;;;;;;11.45;9.50;;;;;;;13.03;47.21;100635.88;10307072;28;20086;-77
2022/03/16 13:14:20;;;;;;;11.13;9.75;;;;;;;13.08;47.56;100634.66;10288916;28;20125;-77
2022/03/16 13:19:24;;;;;;;11.85;10.10;;;;;;;12.98;46.77;100636.94;10305969;28;20952;-77
2022/03/16 13:24:26;;;;;;;10.68;9.10;;;;;;;13.04;46.83;100632.28;10289733;28;20137;-78
2022/03/16 13:29:29;;;;;;;12.43;9.48;;;;;;;13.14;46.28;100631.66;10305665;28;20570;-78
2022/03/16 13:34:37;;;;;;;12.55;9.65;;;;;;;13.25;45.96;100631.84;10289350;28;20046;-77
2022/03/16 13:39:55;;;;;;;11.63;10.13;;;;;;;13.06;44.78;100623.41;10305286;28;20046;-78
2022/03/16 13:45:16;;;;;;;10.35;8.90;;;;;;;12.92;45.75;100608.44;10305058;28;20153;-78
2022/03/16 13:50:28;;;;;;;11.93;8.98;;;;;;;12.98;45.93;100607.25;10301309;28;20061;-78
2022/03/16 13:55:34;;;;;;;10.68;9.50;;;;;;;12.82;46.10;100609.09;10304226;28;20133;-78
2022/03/16 14:00:44;;;;;;;11.45;9.55;;;;;;;12.89;46.05;100603.38;10305796;28;20568;-77
2022/03/16 14:05:48;;;;;;;10.45;9.27;;;;;;;13.09;46.35;100606.63;10303068;28;20050;-77
2022/03/16 14:10:53;;;;;;;10.90;9.75;;;;;;;13.10;46.59;100597.78;10286703;28;20054;-77
2022/03/16 14:16:14;;;;;;;11.43;9.75;;;;;;;13.08;46.26;100597.91;10293514;28;20046;-77
2022/03/16 14:21:16;;;;;;;12.40;10.07;;;;;;;13.04;46.44;100595.53;10303472;28;20058;-77
2022/03/16 14:26:19;;;;;;;11.48;9.32;;;;;;;13.07;46.31;100590.13;10302517;28;20584;-77
2022/03/16 14:31:21;;;;;;;11.40;10.00;;;;;;;13.08;46.36;100591.78;10303930;28;20058;-77
2022/03/16 14:36:27;;;;;;;13.35;10.30;;;;;;;13.12;45.91;100588.03;10286831;28;20068;-77
2022/03/16 14:41:30;;;;;;;12.25;10.10;;;;;;;13.20;46.40;100580.53;10301086;28;20536;-77
2022/03/16 14:46:31;;;;;;;13.27;10.20;;;;;;;13.10;47.07;100584.66;10286404;28;20088;-77
2022/03/16 14:51:33;;;;;;;17.42;10.05;;;;;;;13.10;47.03;100564.50;10304009;28;20534;-77
2022/03/16 14:56:35;;;;;;;13.73;10.10;;;;;;;13.02;47.15;100573.78;10301390;28;20060;-77
2022/03/16 15:01:37;;;;;;;13.90;10.25;;;;;;;12.92;47.23;100562.97;10302493;28;20054;-77
2022/03/16 15:06:39;;;;;;;12.93;11.32;;;;;;;12.78;48.07;100555.06;10302515;28;20522;-76
2022/03/16 15:11:41;;;;;;;17.13;10.90;;;;;;;12.70;48.47;100539.75;10303342;28;20146;-77
2022/03/16 15:16:43;;;;;;;14.38;11.70;;;;;;;12.59;48.53;100531.69;10287823;28;20046;-77
2022/03/16 15:21:45;;;;;;;14.23;11.40;;;;;;;12.53;49.53;100534.66;10284537;28;20109;-77
2022/03/16 15:26:46;;;;;;;13.88;11.90;;;;;;;12.53;49.60;100532.06;10301128;28;20141;-77
2022/03/16 15:31:49;;;;;;;14.73;11.82;;;;;;;12.51;50.00;100526.03;10285630;28;20109;-76
2022/03/16 15:36:51;;;;;;;18.05;12.23;;;;;;;12.37;49.21;100520.75;10307651;28;20109;-76
2022/03/16 15:47:33;;;;;;;14.63;12.00;;;;;;;12.30;50.47;100545.63;10203658;28;20058;-77
2022/03/16 15:52:37;;;;;;;13.95;12.45;;;;;;;12.35;50.15;100533.13;10280475;28;20580;-77
2022/03/16 15:57:44;;;;;;;14.60;12.57;;;;;;;12.23;50.60;100536.41;10310401;28;20172;-76
2022/03/16 16:02:51;;;;;;;14.77;13.07;;;;;;;12.09;50.77;100542.41;10309250;28;20058;-77
2022/03/16 16:07:54;;;;;;;14.00;12.30;;;;;;;12.02;50.47;100530.59;10308266;28;20058;-77
2022/03/16 16:12:56;;;;;;;15.60;12.73;;;;;;;11.92;51.16;100534.66;10309311;28;20060;-76
2022/03/16 16:17:59;;;;;;;14.43;11.82;;;;;;;11.82;50.70;100532.63;10292750;28;20046;-76
2022/03/16 16:23:01;;;;;;;12.93;11.43;;;;;;;11.70;51.12;100528.88;10308992;28;20050;-76
2022/03/16 16:28:03;;;;;;;14.82;11.85;;;;;;;11.49;51.54;100518.75;10309226;28;20064;-76
2022/03/16 16:33:05;;;;;;;15.23;11.77;;;;;;;11.47;51.29;100521.47;10305153;28;20153;-76
2022/03/16 16:38:10;;;;;;;18.33;13.05;;;;;;;11.36;51.79;100528.22;10308820;28;20089;-76
2022/03/16 16:43:13;;;;;;;14.52;13.02;;;;;;;11.28;52.24;100526.81;10301255;28;20054;-77
2022/03/16 16:48:22;;;;;;;17.25;12.75;;;;;;;11.14;52.39;100515.38;10285327;28;20871;-77
2022/03/16 16:53:27;;;;;;;16.50;12.87;;;;;;;11.00;52.53;100516.09;10304753;28;20058;-77
2022/03/16 16:58:29;;;;;;;14.75;12.65;;;;;;;10.95;52.55;100515.47;10306563;28;20142;-76
2022/03/16 17:03:32;;;;;;;19.10;14.32;;;;;;;10.97;52.83;100503.16;10287294;28;20065;-76
2022/03/16 17:08:35;;;;;;;16.75;13.90;;;;;;;10.92;53.09;100510.41;10304849;28;20607;-75
2022/03/16 17:13:38;;;;;;;18.08;14.77;;;;;;;10.85;53.05;100516.03;10306323;28;20058;-75
2022/03/16 17:18:40;;;;;;;16.27;14.32;;;;;;;10.76;53.15;100513.91;10284798;28;20563;-75
2022/03/16 17:23:41;;;;;;;17.77;14.65;;;;;;;10.55;53.57;100507.97;10305769;28;20141;-76
2022/03/16 17:28:44;;;;;;;18.05;15.48;;;;;;;10.54;53.72;100513.28;10289208;28;20054;-75
2022/03/16 17:33:46;;;;;;;18.20;15.52;;;;;;;10.48;53.90;100520.50;10303729;28;20630;-75
2022/03/16 17:38:49;;;;;;;17.58;15.13;;;;;;;10.41;53.98;100523.50;10301785;28;20420;-76
2022/03/16 17:49:12;;;;;;;19.30;16.23;;;;;;;10.35;54.28;100503.75;10304726;28;20141;-77
2022/03/16 17:54:14;;;;;;;20.20;16.83;;;;;;;10.36;54.34;100509.81;10304241;28;20476;-76
2022/03/16 17:59:19;;;;;;;19.02;16.00;;;;;;;10.33;54.25;100504.75;10304615;28;20133;-74
2022/03/16 18:04:20;;;;;;;19.80;16.70;;;;;;;10.39;54.17;100501.81;10285797;28;20603;-74
2022/03/16 18:09:23;;;;;;;19.08;16.15;;;;;;;10.38;54.28;100500.97;10304181;28;20050;-74
2022/03/16 18:14:25;;;;;;;22.63;16.90;;;;;;;10.29;54.36;100506.69;10283356;28;20139;-74
2022/03/16 18:19:28;;;;;;;19.98;16.70;;;;;;;10.17;54.76;100501.19;10305177;28;21107;-74
2022/03/16 18:24:31;;;;;;;21.60;17.45;;;;;;;10.12;54.96;100497.94;10298188;28;20156;-74
2022/03/16 18:29:33;;;;;;;22.77;17.48;;;;;;;10.08;54.77;100497.25;10300333;28;20046;-74
2022/03/16 18:34:35;;;;;;;21.75;17.40;;;;;;;10.06;54.68;100500.88;10302497;28;20744;-74
2022/03/16 18:39:37;;;;;;;22.35;17.42;;;;;;;9.99;54.94;100502.09;10302238;28;20054;-75
2022/03/16 18:44:39;;;;;;;20.42;18.05;;;;;;;9.97;54.93;100509.97;10302094;28;20571;-74
2022/03/16 18:49:41;;;;;;;23.83;18.38;;;;;;;10.04;54.82;100500.09;10301131;28;20053;-74
2022/03/16 18:54:44;;;;;;;26.30;19.45;;;;;;;10.05;54.93;100502.66;10284175;28;20162;-74
2022/03/16 18:59:50;;;;;;;22.67;18.40;;;;;;;9.98;55.11;100500.38;10300251;28;20054;-74
2022/03/16 19:04:53;;;;;;;23.65;18.92;;;;;;;10.03;55.25;100499.28;10297530;28;20073;-74
2022/03/16 19:09:54;;;;;;;22.95;19.13;;;;;;;9.99;55.11;100483.81;10304169;28;20148;-74
2022/03/16 19:14:57;;;;;;;25.15;19.15;;;;;;;9.88;55.45;100480.84;10306404;28;20766;-74
2022/03/16 19:19:59;;;;;;;26.17;20.35;;;;;;;9.86;55.33;100474.84;10302597;28;20140;-74
2022/03/16 19:25:02;;;;;;;24.10;20.65;;;;;;;9.85;55.53;100481.03;10292727;28;20101;-74
2022/03/16 19:30:06;;;;;;;30.95;24.40;;;;;;;9.84;55.78;100485.38;10308101;28;20464;-74
2022/03/16 19:35:09;;;;;;;28.10;22.83;;;;;;;9.82;56.08;100495.06;10305054;28;20087;-74
2022/03/16 19:40:12;;;;;;;31.05;21.13;;;;;;;9.67;56.56;100501.00;10307588;28;20046;-74
2022/03/16 19:45:14;;;;;;;29.80;21.55;;;;;;;9.52;56.91;100494.69;10309316;28;20090;-74
2022/03/16 19:50:17;;;;;;;26.25;21.55;;;;;;;9.52;56.65;100494.69;10309923;28;20057;-73
2022/03/16 19:55:19;;;;;;;25.77;21.95;;;;;;;9.49;56.84;100518.34;10293311;28;20085;-73
2022/03/16 20:00:21;;;;;;;29.80;23.20;;;;;;;9.51;56.91;100515.66;10311778;28;20086;-73
2022/03/16 20:05:23;;;;;;;29.80;26.60;;;;;;;9.46;56.90;100513.25;10309596;28;20086;-73
2022/03/16 20:10:24;;;;;;;31.13;26.00;;;;;;;9.42;57.20;100524.75;10310808;28;20090;-74
2022/03/16 20:15:28;;;;;;;30.05;25.38;;;;;;;9.32;57.27;100518.25;10292688;28;20042;-73
2022/03/16 20:20:30;;;;;;;35.00;27.30;;;;;;;9.33;57.17;100501.69;10310353;28;20627;-74
2022/03/16 20:25:32;;;;;;;32.25;24.85;;;;;;;9.22;57.19;100503.94;10308764;28;20057;-74
2022/03/16 20:30:34;;;;;;;28.10;23.63;;;;;;;9.03;57.54;100502.22;10309176;28;20133;-74
2022/03/16 20:35:37;;;;;;;29.40;23.98;;;;;;;9.02;57.58;100501.38;10308878;28;20054;-74
2022/03/16 20:40:45;;;;;;;28.23;24.15;;;;;;;8.98;57.86;100512.84;10292651;28;20542;-74
2022/03/16 20:45:48;;;;;;;30.42;24.50;;;;;;;8.97;58.15;100516.38;10309377;28;20058;-74
2022/03/16 20:50:53;;;;;;;33.10;25.52;;;;;;;8.92;58.16;100505.28;10308976;28;20112;-74
2022/03/16 20:55:57;;;;;;;29.52;24.65;;;;;;;8.88;58.09;100503.75;10290747;28;20065;-74
2022/03/16 21:00:59;;;;;;;30.15;25.40;;;;;;;8.88;58.22;100511.56;10291205;28;20062;-74
2022/03/16 21:06:02;;;;;;;30.10;22.80;;;;;;;8.91;57.81;100507.97;10308115;28;20498;-74
2022/03/16 21:11:10;;;;;;;33.85;24.10;;;;;;;8.94;57.90;100511.28;10308117;28;20133;-74
2022/03/16 21:16:12;;;;;;;26.90;22.27;;;;;;;8.85;57.97;100506.50;10290597;28;20555;-74
2022/03/16 21:21:14;;;;;;;28.95;23.45;;;;;;;8.84;57.96;100505.63;10307745;28;20046;-73
2022/03/16 21:26:18;;;;;;;27.77;23.85;;;;;;;8.83;58.37;100510.94;10308154;28;20153;-74
2022/03/16 21:31:21;;;;;;;32.65;25.95;;;;;;;8.81;58.22;100502.31;10308114;28;20090;-73
2022/03/16 21:36:24;;;;;;;28.48;23.90;;;;;;;8.84;58.01;100502.19;10308380;28;20132;-73
2022/03/16 21:46:46;;;;;;;31.90;24.20;;;;;;;8.72;58.32;100498.34;10307526;28;20056;-73
2022/03/16 21:51:48;;;;;;;28.30;22.92;;;;;;;8.75;58.14;100503.41;10310323;28;20145;-74
2022/03/16 21:56:50;;;;;;;25.20;21.83;;;;;;;8.77;57.93;100492.94;10291265;28;20130;-73
2022/03/16 22:02:02;;;;;;;26.23;22.02;;;;;;;8.71;58.01;100485.34;10288162;28;20066;-74
2022/03/16 22:07:09;;;;;;;27.63;22.70;;;;;;;8.68;58.20;100491.56;10306900;28;20081;-74
2022/03/16 22:12:11;;;;;;;29.92;23.20;;;;;;;8.60;58.60;100492.81;10306727;28;20136;-74
2022/03/16 22:17:15;;;;;;;33.15;26.80;;;;;;;8.59;58.74;100491.09;10288929;28;20054;-74
2022/03/16 22:22:17;;;;;;;36.22;28.20;;;;;;;8.55;58.68;100479.97;10305016;28;20416;-73
2022/03/16 22:27:19;;;;;;;36.38;28.75;;;;;;;8.48;58.91;100491.59;10286877;28;20419;-74
2022/03/16 22:32:22;;;;;;;34.22;26.90;;;;;;;8.48;59.02;100493.34;10305860;28;20066;-73
2022/03/16 22:37:24;;;;;;;33.08;27.77;;;;;;;8.48;59.04;100475.94;10305899;28;20129;-73
2022/03/16 22:42:26;;;;;;;38.63;29.17;;;;;;;8.45;59.03;100483.88;10304974;28;20108;-73
2022/03/16 22:47:28;;;;;;;32.13;25.77;;;;;;;8.47;59.25;100478.59;10303604;28;20161;-73
2022/03/16 22:52:29;;;;;;;32.15;24.75;;;;;;;8.50;59.19;100471.50;10305257;28;20536;-73
2022/03/16 22:57:32;;;;;;;31.98;25.77;;;;;;;8.49;59.14;100475.00;10304695;28;20134;-74
2022/03/16 23:02:35;;;;;;;31.05;23.95;;;;;;;8.47;58.80;100482.06;10303916;28;20185;-73
2022/03/16 23:07:37;;;;;;;40.88;30.30;;;;;;;8.48;59.09;100481.16;10287533;28;20051;-73
2022/03/16 23:12:40;;;;;;;32.75;26.00;;;;;;;8.46;59.30;100482.97;10304837;28;20164;-74
2022/03/16 23:17:42;;;;;;;34.50;27.23;;;;;;;8.46;59.28;100492.56;10304046;28;20042;-74
2022/03/16 23:22:45;;;;;;;35.35;27.13;;;;;;;8.50;59.23;100491.50;10287618;28;20050;-74
2022/03/16 23:27:47;;;;;;;34.58;25.23;;;;;;;8.46;59.21;100476.91;10304824;28;20145;-74